createdAt,value
2022-09-04T00:01:34.381Z,1.00
2022-09-04T00:04:37.043Z,1.10
2022-09-04T00:07:18.649Z,0.82
2022-09-04T00:09:54.221Z,1.20
2022-09-04T00:12:32.401Z,1.30
2022-09-04T00:15:13.777Z,1.00
2022-09-04T00:17:59.719Z,1.05
2022-09-04T00:20:53.151Z,1.30
2022-09-04T00:23:35.260Z,1.10
2022-09-04T00:26:11.107Z,1.13
2022-09-04T00:28:45.203Z,1.20
2022-09-04T00:31:25.986Z,0.95
2022-09-04T00:34:18.781Z,1.20
2022-09-04T00:36:50.540Z,1.10
2022-09-04T00:39:33.288Z,1.20
2022-09-04T00:42:21.587Z,1.20
2022-09-04T00:45:07.517Z,1.00
2022-09-04T00:47:57.506Z,0.93
2022-09-04T00:50:28.871Z,1.10
2022-09-04T00:53:16.332Z,1.10
2022-09-04T00:56:12.019Z,1.50
2022-09-04T00:59:15.053Z,1.20
2022-09-04T01:01:45.002Z,1.00
2022-09-04T01:04:49.510Z,1.10
2022-09-04T01:07:45.672Z,1.13
2022-09-04T01:10:29.148Z,1.10
2022-09-04T01:13:07.248Z,1.05
2022-09-04T01:15:55.472Z,1.17
2022-09-04T01:18:48.109Z,1.20
2022-09-04T01:21:30.858Z,1.05
2022-09-04T01:24:14.359Z,0.88
2022-09-04T01:27:00.980Z,1.02
2022-09-04T01:29:41.800Z,1.00
2022-09-04T01:32:31.280Z,0.93
2022-09-04T01:35:16.147Z,1.27
2022-09-04T01:38:05.963Z,1.10
2022-09-04T01:40:38.852Z,1.23
2022-09-04T01:43:23.222Z,1.10
2022-09-04T01:46:16.485Z,1.20
2022-09-04T01:48:58.517Z,1.08
2022-09-04T01:51:34.094Z,1.10
2022-09-04T01:54:23.773Z,1.10
2022-09-04T01:57:05.758Z,1.23
2022-09-04T01:59:45.399Z,1.13
2022-09-04T02:02:30.698Z,1.10
2022-09-04T02:05:18.323Z,1.20
2022-09-04T02:07:49.577Z,1.20
2022-09-04T02:10:33.075Z,1.20
2022-09-04T02:13:07.363Z,1.00
2022-09-04T02:16:03.057Z,1.40
2022-09-04T02:18:47.906Z,1.20
2022-09-04T02:21:25.898Z,1.38
2022-09-04T02:24:13.125Z,1.20
2022-09-04T02:26:49.382Z,1.27
2022-09-04T02:29:30.043Z,1.35
2022-09-04T02:32:37.856Z,1.23
2022-09-04T02:35:20.668Z,1.17
2022-09-04T02:38:10.691Z,1.10
2022-09-04T02:41:12.758Z,1.10
2022-09-04T02:44:07.402Z,1.30
2022-09-04T02:46:56.239Z,1.30
2022-09-04T02:49:38.016Z,1.50
2022-09-04T02:52:38.519Z,1.38
2022-09-04T02:55:36.092Z,1.23
2022-09-04T02:58:27.009Z,1.33
2022-09-04T03:01:17.410Z,1.60
2022-09-04T03:04:14.835Z,1.45
2022-09-04T03:06:54.649Z,1.50
2022-09-04T03:09:45.203Z,1.20
2022-09-04T03:12:49.505Z,1.58
2022-09-04T03:15:34.975Z,1.60
2022-09-04T03:18:26.537Z,1.70
2022-09-04T03:20:58.851Z,1.70
2022-09-04T03:23:34.486Z,1.60
2022-09-04T03:26:27.544Z,1.45
2022-09-04T03:29:22.403Z,1.50
2022-09-04T03:31:54.893Z,1.73
2022-09-04T03:34:49.644Z,1.50
2022-09-04T03:37:33.139Z,1.92
2022-09-04T03:40:27.164Z,1.40
2022-09-04T03:43:28.166Z,1.60
2022-09-04T03:46:03.106Z,1.50
2022-09-04T03:49:04.010Z,1.52
2022-09-04T03:52:27.362Z,1.77
2022-09-04T03:55:29.374Z,1.40
2022-09-04T03:58:28.656Z,1.67
2022-09-04T04:01:07.676Z,1.50
2022-09-04T04:03:51.217Z,1.80
2022-09-04T04:06:48.635Z,1.58
2022-09-04T04:10:09.987Z,1.70
2022-09-04T04:12:45.005Z,1.75
2022-09-04T04:15:56.589Z,1.40
2022-09-04T04:18:54.367Z,1.60
2022-09-04T04:21:50.769Z,1.55
2022-09-04T04:24:39.068Z,1.55
2022-09-04T04:27:40.424Z,1.70
2022-09-04T04:30:14.990Z,1.77
2022-09-04T04:33:00.494Z,1.55
2022-09-04T04:35:36.639Z,1.60
2022-09-04T04:38:31.412Z,1.70
2022-09-04T04:41:16.222Z,1.88
2022-09-04T04:43:59.692Z,1.70
2022-09-04T04:46:51.121Z,1.73
2022-09-04T04:49:44.710Z,1.70
2022-09-04T04:52:32.647Z,1.58
2022-09-04T04:55:22.776Z,1.92
2022-09-04T04:58:20.440Z,1.73
2022-09-04T05:00:49.935Z,2.15
2022-09-04T05:03:43.079Z,3.28
2022-09-04T05:06:21.196Z,3.15
2022-09-04T05:08:54.812Z,2.90
2022-09-04T05:11:37.326Z,2.60
2022-09-04T05:14:19.169Z,2.75
2022-09-04T05:17:09.462Z,2.33
2022-09-04T05:19:40.924Z,1.85
2022-09-04T05:22:34.552Z,1.92
2022-09-04T05:25:18.685Z,2.33
2022-09-04T05:28:00.541Z,2.08
2022-09-04T05:30:33.679Z,2.35
2022-09-04T05:33:15.979Z,1.77
2022-09-04T05:36:00.105Z,1.55
2022-09-04T05:38:46.838Z,1.60
2022-09-04T05:41:31.695Z,1.40
2022-09-04T05:44:21.208Z,1.52
2022-09-04T05:47:09.708Z,1.30
2022-09-04T05:49:59.311Z,1.65
2022-09-04T05:53:03.446Z,1.58
2022-09-04T05:55:43.225Z,1.35
2022-09-04T05:58:24.134Z,2.03
2022-09-04T06:01:13.510Z,1.50
2022-09-04T06:04:09.744Z,1.38
2022-09-04T06:07:02.282Z,1.52
2022-09-04T06:09:34.829Z,1.38
2022-09-04T06:12:19.648Z,1.45
2022-09-04T06:15:15.363Z,1.27
2022-09-04T06:17:51.149Z,1.50
2022-09-04T06:20:49.738Z,1.63
2022-09-04T06:23:54.712Z,1.42
2022-09-04T06:26:30.361Z,1.30
2022-09-04T06:29:23.544Z,1.50
2022-09-04T06:32:12.067Z,1.58
2022-09-04T06:35:06.265Z,1.25
2022-09-04T06:37:41.611Z,1.27
2022-09-04T06:40:36.015Z,1.30
2022-09-04T06:43:08.747Z,1.70
2022-09-04T06:45:49.108Z,1.55
2022-09-04T06:49:00.356Z,1.65
2022-09-04T06:52:07.596Z,1.50
2022-09-04T06:54:52.436Z,1.63
2022-09-04T06:57:48.163Z,1.60
2022-09-04T07:00:21.073Z,1.70
2022-09-04T07:03:09.874Z,1.60
2022-09-04T07:05:43.179Z,1.92
2022-09-04T07:08:54.268Z,1.80
2022-09-04T07:11:40.373Z,1.70
2022-09-04T07:14:46.132Z,1.60
2022-09-04T07:17:36.479Z,1.92
2022-09-04T07:20:22.207Z,1.70
2022-09-04T07:23:08.604Z,1.80
2022-09-04T07:25:49.648Z,1.55
2022-09-04T07:28:16.334Z,1.70
2022-09-04T07:31:08.389Z,2.00
2022-09-04T07:33:46.851Z,1.80
2022-09-04T07:36:35.920Z,1.95
2022-09-04T07:39:43.487Z,1.95
2022-09-04T07:42:23.929Z,1.95
2022-09-04T07:45:02.109Z,1.98
2022-09-04T07:47:36.088Z,2.22
2022-09-04T07:50:41.922Z,1.75
2022-09-04T07:53:23.756Z,1.80
2022-09-04T07:55:57.952Z,2.20
2022-09-04T07:58:24.703Z,2.28
2022-09-04T08:01:12.757Z,1.98
2022-09-04T08:03:53.681Z,2.22
2022-09-04T08:06:40.036Z,2.30
2022-09-04T08:09:58.835Z,1.92
2022-09-04T08:12:42.685Z,2.47
2022-09-04T08:15:24.437Z,2.10
2022-09-04T08:18:09.783Z,2.47
2022-09-04T08:20:42.016Z,2.17
2022-09-04T08:23:43.537Z,2.22
2022-09-04T08:26:36.152Z,2.10
2022-09-04T08:29:14.773Z,2.30
2022-09-04T08:32:19.154Z,2.53
2022-09-04T08:35:10.225Z,2.53
2022-09-04T08:38:07.409Z,2.25
2022-09-04T08:41:06.882Z,2.10
2022-09-04T08:44:11.891Z,2.00
2022-09-04T08:47:19.014Z,1.67
2022-09-04T08:50:03.856Z,2.08
2022-09-04T08:53:20.247Z,1.83
2022-09-04T08:55:58.566Z,1.88
2022-09-04T08:58:45.671Z,2.13
2022-09-04T09:01:54.848Z,1.80
2022-09-04T09:04:59.553Z,1.90
2022-09-04T09:07:35.027Z,1.90
2022-09-04T09:10:17.112Z,2.05
2022-09-04T09:13:10.119Z,2.15
2022-09-04T09:16:07.963Z,2.15
2022-09-04T09:19:01.532Z,2.33
2022-09-04T09:21:31.047Z,2.00
2022-09-04T09:24:28.082Z,2.20
2022-09-04T09:27:32.777Z,1.98
2022-09-04T09:30:08.011Z,2.30
2022-09-04T09:32:56.651Z,2.40
2022-09-04T09:35:56.082Z,2.10
2022-09-04T09:38:42.501Z,2.30
2022-09-04T09:41:18.230Z,2.22
2022-09-04T09:44:09.061Z,2.35
2022-09-04T09:46:47.931Z,1.98
2022-09-04T09:49:39.181Z,2.38
2022-09-04T09:52:39.232Z,2.40
2022-09-04T09:55:24.309Z,1.90
2022-09-04T09:58:15.216Z,2.05
2022-09-04T10:01:08.703Z,2.00
2022-09-04T10:04:10.614Z,2.53
2022-09-04T10:07:04.693Z,2.17
2022-09-04T10:10:17.056Z,2.03
2022-09-04T10:13:01.979Z,2.05
2022-09-04T10:15:59.508Z,2.17
2022-09-04T10:18:38.127Z,2.47
2022-09-04T10:21:31.632Z,2.05
2022-09-04T10:24:26.535Z,1.95
2022-09-04T10:26:59.000Z,2.03
2022-09-04T10:29:37.822Z,2.13
2022-09-04T10:32:31.856Z,2.20
2022-09-04T10:35:25.994Z,1.90
2022-09-04T10:38:21.261Z,2.10
2022-09-04T10:41:06.117Z,2.00
2022-09-04T10:43:55.862Z,2.30
2022-09-04T10:46:28.162Z,2.08
2022-09-04T10:49:15.410Z,2.25
2022-09-04T10:51:59.814Z,1.92
2022-09-04T10:54:45.106Z,2.25
2022-09-04T10:57:41.821Z,1.95
2022-09-04T11:00:21.930Z,2.10
2022-09-04T11:03:25.634Z,2.10
2022-09-04T11:06:28.905Z,2.20
2022-09-04T11:09:18.343Z,1.95
2022-09-04T11:11:58.669Z,2.10
2022-09-04T11:14:33.446Z,2.03
2022-09-04T11:17:19.697Z,2.13
2022-09-04T11:19:56.106Z,2.25
2022-09-04T11:23:14.927Z,2.25
2022-09-04T11:26:06.009Z,2.08
2022-09-04T11:28:51.323Z,2.50
2022-09-04T11:31:48.478Z,2.00
2022-09-04T11:34:50.660Z,2.10
2022-09-04T11:37:39.305Z,1.83
2022-09-04T11:40:26.757Z,2.03
2022-09-04T11:43:07.463Z,1.95
2022-09-04T11:46:21.637Z,1.65
2022-09-04T11:49:33.292Z,1.90
2022-09-04T11:52:11.877Z,1.98
2022-09-04T11:55:05.140Z,2.00
2022-09-04T11:57:57.929Z,1.73
2022-09-04T12:00:24.783Z,1.83
2022-09-04T12:03:10.476Z,1.80
2022-09-04T12:05:52.159Z,1.80
2022-09-04T12:09:10.427Z,1.80
2022-09-04T12:11:59.282Z,1.92
2022-09-04T12:14:38.038Z,1.80
2022-09-04T12:17:38.459Z,1.80
2022-09-04T12:20:19.378Z,2.08
2022-09-04T12:23:05.053Z,2.10
2022-09-04T12:25:58.025Z,1.80
2022-09-04T12:28:46.961Z,1.92
2022-09-04T12:31:33.172Z,2.00
2022-09-04T12:34:29.096Z,2.00
2022-09-04T12:37:33.881Z,2.15
2022-09-04T12:40:29.385Z,2.22
2022-09-04T12:43:17.339Z,1.90
2022-09-04T12:46:23.491Z,2.17
2022-09-04T12:49:08.942Z,1.73
2022-09-04T12:52:11.782Z,1.88
2022-09-04T12:55:05.233Z,2.00
2022-09-04T12:57:46.882Z,2.10
2022-09-04T13:00:16.862Z,1.83
2022-09-04T13:03:19.335Z,2.05
2022-09-04T13:06:23.508Z,2.00
2022-09-04T13:09:01.756Z,2.03
2022-09-04T13:12:09.834Z,1.88
2022-09-04T13:15:07.774Z,1.95
2022-09-04T13:17:51.189Z,2.10
2022-09-04T13:20:29.866Z,2.10
2022-09-04T13:23:12.972Z,1.80
2022-09-04T13:26:12.406Z,1.85
2022-09-04T13:29:03.589Z,2.17
2022-09-04T13:31:38.369Z,2.10
2022-09-04T13:34:20.253Z,1.98
2022-09-04T13:37:24.942Z,2.00
2022-09-04T13:40:04.857Z,1.75
2022-09-04T13:42:51.786Z,1.90
2022-09-04T13:45:23.688Z,2.03
2022-09-04T13:47:58.570Z,1.92
2022-09-04T13:51:01.326Z,1.92
2022-09-04T13:53:40.749Z,2.40
2022-09-04T13:56:13.257Z,1.92
2022-09-04T13:58:51.340Z,1.65
2022-09-04T14:01:23.967Z,1.60
2022-09-04T14:03:56.012Z,1.60
2022-09-04T14:06:25.438Z,1.80
2022-09-04T14:09:04.961Z,2.08
2022-09-04T14:11:44.584Z,1.88
2022-09-04T14:14:42.222Z,1.73
2022-09-04T14:17:09.932Z,1.85
2022-09-04T14:19:57.587Z,1.85
2022-09-04T14:23:05.064Z,1.95
2022-09-04T14:25:53.423Z,2.10
2022-09-04T14:28:50.933Z,1.77
2022-09-04T14:31:46.697Z,1.60
2022-09-04T14:34:46.958Z,1.55
2022-09-04T14:37:48.252Z,1.95
2022-09-04T14:40:19.924Z,2.22
2022-09-04T14:43:01.587Z,2.00
2022-09-04T14:45:51.817Z,2.28
2022-09-04T14:48:24.175Z,2.08
2022-09-04T14:50:55.747Z,1.95
2022-09-04T14:53:28.206Z,2.10
2022-09-04T14:56:07.408Z,1.73
2022-09-04T14:58:50.904Z,2.10
2022-09-04T15:01:22.150Z,2.08
2022-09-04T15:04:14.294Z,1.90
2022-09-04T15:07:07.839Z,2.20
2022-09-04T15:09:41.105Z,2.20
2022-09-04T15:12:34.464Z,1.83
2022-09-04T15:15:31.562Z,1.90
2022-09-04T15:18:10.776Z,1.73
2022-09-04T15:20:47.224Z,2.10
2022-09-04T15:23:35.882Z,2.00
2022-09-04T15:26:30.371Z,1.88
2022-09-04T15:29:22.819Z,2.45
2022-09-04T15:31:59.695Z,2.65
2022-09-04T15:34:27.593Z,2.10
2022-09-04T15:36:54.903Z,1.88
2022-09-04T15:39:36.783Z,2.15
2022-09-04T15:42:03.726Z,1.80
2022-09-04T15:44:47.044Z,2.42
2022-09-04T15:47:26.037Z,2.15
2022-09-04T15:49:55.430Z,2.38
2022-09-04T15:52:58.596Z,2.08
2022-09-04T15:55:34.796Z,2.20
2022-09-04T15:58:24.821Z,2.03
2022-09-04T16:01:13.278Z,2.03
2022-09-04T16:03:55.154Z,2.50
2022-09-04T16:06:31.758Z,2.55
2022-09-04T16:09:33.878Z,1.88
2022-09-04T16:12:09.921Z,2.10
2022-09-04T16:15:18.196Z,1.95
2022-09-04T16:17:50.067Z,1.83
2022-09-04T16:20:40.695Z,2.08
2022-09-04T16:23:12.053Z,1.90
2022-09-04T16:25:47.582Z,2.15
2022-09-04T16:28:19.059Z,2.20
2022-09-04T16:30:54.147Z,2.30
2022-09-04T16:33:39.511Z,2.60
2022-09-04T16:36:20.922Z,2.25
2022-09-04T16:38:59.989Z,2.50
2022-09-04T16:41:38.805Z,2.40
2022-09-04T16:44:14.716Z,1.80
2022-09-04T16:46:51.470Z,2.22
2022-09-04T16:49:28.947Z,2.13
2022-09-04T16:52:20.009Z,2.30
2022-09-04T16:54:55.145Z,2.38
2022-09-04T16:57:38.645Z,2.30
2022-09-04T17:00:14.450Z,2.58
2022-09-04T17:02:57.363Z,2.47
2022-09-04T17:05:34.914Z,2.83
2022-09-04T17:08:07.825Z,2.55
2022-09-04T17:10:37.548Z,1.83
2022-09-04T17:13:12.768Z,2.25
2022-09-04T17:15:57.993Z,2.22
2022-09-04T17:18:27.967Z,2.30
2022-09-04T17:27:13.104Z,2.42
2022-09-04T17:29:12.643Z,2.35
2022-09-04T17:29:15.231Z,2.35
2022-09-04T17:30:44.432Z,2.78
2022-09-04T17:40:35.547Z,2.38
2022-09-04T17:40:35.593Z,2.63
2022-09-04T17:40:55.088Z,2.50
2022-09-04T17:43:21.776Z,2.72
2022-09-04T17:45:59.418Z,2.70
2022-09-04T17:48:42.471Z,2.45
2022-09-04T17:51:17.847Z,2.30
2022-09-04T17:53:50.112Z,2.50
2022-09-04T17:56:34.108Z,2.33
2022-09-04T17:59:12.780Z,2.55
2022-09-04T18:02:10.602Z,2.40
2022-09-04T18:08:08.598Z,2.72
2022-09-04T18:10:49.771Z,2.70
2022-09-04T18:13:52.771Z,2.47
2022-09-04T18:16:47.572Z,2.78
2022-09-04T18:19:38.332Z,2.63
2022-09-04T18:22:33.269Z,2.67
2022-09-04T18:25:33.283Z,2.80
2022-09-04T18:28:12.841Z,2.50
2022-09-04T18:37:06.870Z,2.75
2022-09-04T18:37:20.408Z,2.75
2022-09-04T18:37:46.608Z,3.00
2022-09-04T18:41:10.161Z,2.65
2022-09-04T18:50:21.133Z,2.90
2022-09-04T18:50:21.324Z,2.40
2022-09-04T18:50:35.289Z,2.90
2022-09-04T18:51:57.959Z,2.95
2022-09-04T18:54:40.573Z,2.50
2022-09-04T18:57:34.803Z,2.63
2022-09-04T19:00:08.346Z,2.50
2022-09-04T19:02:54.793Z,2.90
2022-09-04T19:05:30.647Z,2.55
2022-09-04T19:08:19.855Z,2.78
2022-09-04T19:10:55.541Z,2.70
2022-09-04T19:13:34.539Z,2.63
2022-09-04T19:16:13.068Z,2.80
2022-09-04T19:18:45.574Z,2.67
2022-09-04T19:21:21.610Z,2.70
2022-09-04T19:24:19.281Z,3.20
2022-09-04T19:26:55.068Z,2.92
2022-09-04T19:29:36.670Z,2.80
2022-09-04T19:32:14.392Z,2.40
2022-09-04T19:34:46.645Z,2.90
2022-09-04T19:41:16.696Z,2.55
2022-09-04T19:46:04.422Z,2.83
2022-09-04T19:46:06.480Z,2.58
2022-09-04T19:46:30.462Z,3.22
2022-09-04T19:50:22.703Z,2.83
2022-09-04T19:53:35.411Z,2.85
2022-09-04T19:55:23.933Z,2.65
2022-09-04T20:00:58.093Z,2.58
2022-09-04T20:03:30.178Z,3.15
2022-09-04T20:06:22.539Z,2.45
2022-09-04T20:09:01.245Z,2.42
2022-09-04T20:11:51.462Z,2.28
2022-09-04T20:14:40.229Z,2.70
2022-09-04T20:17:44.551Z,2.47
2022-09-04T20:24:42.245Z,2.50
2022-09-04T20:27:40.098Z,2.33
2022-09-04T20:30:23.206Z,2.70
2022-09-04T20:32:57.442Z,2.30
2022-09-04T20:35:45.790Z,2.67
2022-09-04T20:38:25.422Z,2.58
2022-09-04T20:41:02.001Z,2.45
2022-09-04T20:43:46.931Z,2.55
2022-09-04T20:52:45.637Z,2.70
2022-09-04T20:52:55.659Z,2.22
2022-09-04T20:53:12.023Z,2.47
2022-09-04T20:55:59.027Z,2.13
2022-09-04T21:03:11.656Z,2.33
2022-09-04T21:03:17.138Z,2.70
2022-09-04T21:04:47.435Z,2.63
2022-09-04T21:07:29.762Z,2.30
2022-09-04T21:10:10.784Z,2.80
2022-09-04T21:12:52.483Z,2.47
2022-09-04T21:15:52.275Z,2.88
2022-09-04T21:19:06.505Z,2.45
2022-09-04T21:22:00.353Z,2.40
2022-09-04T21:24:44.352Z,2.65
2022-09-04T21:27:48.723Z,2.40
2022-09-04T21:30:18.658Z,2.40
2022-09-04T21:33:26.831Z,2.50
2022-09-04T21:35:55.537Z,2.20
2022-09-04T21:38:48.517Z,2.40
2022-09-04T21:41:37.962Z,2.53
2022-09-04T21:44:13.807Z,2.63
2022-09-04T21:47:13.085Z,2.47
2022-09-04T21:50:08.297Z,2.35
2022-09-04T21:52:56.372Z,2.45
2022-09-04T22:02:07.939Z,2.38
2022-09-04T22:02:38.662Z,2.22
2022-09-04T22:02:45.893Z,2.50
2022-09-04T22:05:28.796Z,2.38
2022-09-04T22:13:09.624Z,2.50
2022-09-04T22:13:43.193Z,2.22
2022-09-04T22:14:36.169Z,2.55
2022-09-04T22:17:24.549Z,2.45
2022-09-04T22:19:54.016Z,2.55
2022-09-04T22:23:00.831Z,2.42
2022-09-04T22:26:09.972Z,2.75
2022-09-04T22:29:17.338Z,2.33
2022-09-04T22:32:20.722Z,2.65
2022-09-04T22:35:25.261Z,2.90
2022-09-04T22:38:31.418Z,2.55
2022-09-04T22:41:08.123Z,2.80
2022-09-04T22:43:46.721Z,2.70
2022-09-04T22:46:14.101Z,2.83
2022-09-04T22:49:12.345Z,2.88
2022-09-04T22:51:46.966Z,2.65
2022-09-04T22:54:41.533Z,2.42
2022-09-04T22:57:51.433Z,2.45
2022-09-04T23:00:20.663Z,2.30
2022-09-04T23:03:10.059Z,2.80
2022-09-04T23:05:37.077Z,2.80
2022-09-04T23:13:47.939Z,2.58
2022-09-04T23:13:49.987Z,2.50
2022-09-04T23:14:28.594Z,3.20
2022-09-04T23:17:16.453Z,2.92
2022-09-04T23:26:31.287Z,3.17
2022-09-04T23:26:46.612Z,3.20
2022-09-04T23:26:59.508Z,3.00
2022-09-04T23:30:05.816Z,2.85
2022-09-04T23:33:10.063Z,3.00
2022-09-04T23:35:54.458Z,2.75
2022-09-04T23:38:39.953Z,2.88
2022-09-04T23:41:53.362Z,3.13
2022-09-04T23:44:45.277Z,3.00
2022-09-04T23:47:47.098Z,3.28
2022-09-04T23:50:29.552Z,3.30
2022-09-04T23:53:32.039Z,3.00
2022-09-04T23:56:27.839Z,3.00
2022-09-04T23:59:37.330Z,2.95
